sensor_id;sensor_type;location;lat;lon;timestamp;P1;durP1;ratioP1;P2;durP2;ratioP2
15230;SDS011;32569;51.762;8.564;2023-05-23T00:01:39;27.23;;;24.37;;
15230;SDS011;32569;51.762;8.564;2023-05-23T00:04:07;27.27;;;24.43;;
15230;SDS011;32569;51.762;8.564;2023-05-23T00:06:34;26.73;;;23.93;;
15230;SDS011;32569;51.762;8.564;2023-05-23T00:09:02;25.63;;;22.93;;
15230;SDS011;32569;51.762;8.564;2023-05-23T00:11:29;27.70;;;24.80;;
15230;SDS011;32569;51.762;8.564;2023-05-23T00:13:57;26.37;;;23.67;;
15230;SDS011;32569;51.762;8.564;2023-05-23T00:16:25;25.53;;;22.83;;
15230;SDS011;32569;51.762;8.564;2023-05-23T00:18:51;25.57;;;23.07;;
15230;SDS011;32569;51.762;8.564;2023-05-23T00:21:21;24.13;;;21.73;;
15230;SDS011;32569;51.762;8.564;2023-05-23T00:23:48;24.47;;;21.97;;
15230;SDS011;32569;51.762;8.564;2023-05-23T00:26:14;24.90;;;22.50;;
15230;SDS011;32569;51.762;8.564;2023-05-23T00:28:41;25.07;;;22.30;;
15230;SDS011;32569;51.762;8.564;2023-05-23T00:31:09;24.20;;;21.70;;
15230;SDS011;32569;51.762;8.564;2023-05-23T00:33:35;24.93;;;22.23;;
15230;SDS011;32569;51.762;8.564;2023-05-23T00:36:02;24.63;;;22.13;;
15230;SDS011;32569;51.762;8.564;2023-05-23T00:38:30;22.63;;;20.30;;
15230;SDS011;32569;51.762;8.564;2023-05-23T00:40:57;23.27;;;20.87;;
15230;SDS011;32569;51.762;8.564;2023-05-23T00:43:23;23.13;;;20.83;;
15230;SDS011;32569;51.762;8.564;2023-05-23T00:45:50;22.17;;;19.93;;
15230;SDS011;32569;51.762;8.564;2023-05-23T00:48:18;23.20;;;21.00;;
15230;SDS011;32569;51.762;8.564;2023-05-23T00:50:44;23.67;;;20.80;;
15230;SDS011;32569;51.762;8.564;2023-05-23T00:53:11;22.47;;;20.27;;
15230;SDS011;32569;51.762;8.564;2023-05-23T00:55:38;21.70;;;19.63;;
15230;SDS011;32569;51.762;8.564;2023-05-23T00:58:05;20.67;;;18.67;;
15230;SDS011;32569;51.762;8.564;2023-05-23T01:00:32;20.47;;;18.47;;
15230;SDS011;32569;51.762;8.564;2023-05-23T01:02:59;20.07;;;18.00;;
15230;SDS011;32569;51.762;8.564;2023-05-23T01:05:28;19.97;;;18.20;;
15230;SDS011;32569;51.762;8.564;2023-05-23T01:07:54;18.93;;;17.10;;
15230;SDS011;32569;51.762;8.564;2023-05-23T01:10:22;18.57;;;16.67;;
15230;SDS011;32569;51.762;8.564;2023-05-23T01:12:55;18.80;;;17.10;;
15230;SDS011;32569;51.762;8.564;2023-05-23T01:15:30;18.20;;;16.30;;
15230;SDS011;32569;51.762;8.564;2023-05-23T01:18:03;17.50;;;15.70;;
15230;SDS011;32569;51.762;8.564;2023-05-23T01:20:36;16.83;;;15.33;;
15230;SDS011;32569;51.762;8.564;2023-05-23T01:23:21;16.50;;;14.73;;
15230;SDS011;32569;51.762;8.564;2023-05-23T01:26:02;16.03;;;14.40;;
15230;SDS011;32569;51.762;8.564;2023-05-23T01:28:43;16.83;;;15.03;;
15230;SDS011;32569;51.762;8.564;2023-05-23T01:31:12;16.30;;;14.70;;
15230;SDS011;32569;51.762;8.564;2023-05-23T01:33:40;17.17;;;15.37;;
15230;SDS011;32569;51.762;8.564;2023-05-23T01:36:08;16.20;;;14.57;;
15230;SDS011;32569;51.762;8.564;2023-05-23T01:38:38;15.30;;;13.80;;
15230;SDS011;32569;51.762;8.564;2023-05-23T01:41:05;15.17;;;13.67;;
15230;SDS011;32569;51.762;8.564;2023-05-23T01:43:32;15.00;;;13.40;;
15230;SDS011;32569;51.762;8.564;2023-05-23T01:46:00;15.87;;;14.20;;
15230;SDS011;32569;51.762;8.564;2023-05-23T01:48:28;16.17;;;14.67;;
15230;SDS011;32569;51.762;8.564;2023-05-23T01:50:56;15.10;;;13.50;;
15230;SDS011;32569;51.762;8.564;2023-05-23T01:53:23;14.17;;;12.87;;
15230;SDS011;32569;51.762;8.564;2023-05-23T01:55:51;13.77;;;12.37;;
15230;SDS011;32569;51.762;8.564;2023-05-23T01:58:18;14.40;;;12.87;;
15230;SDS011;32569;51.762;8.564;2023-05-23T02:00:45;12.10;;;10.90;;
15230;SDS011;32569;51.762;8.564;2023-05-23T02:03:13;11.50;;;10.43;;
15230;SDS011;32569;51.762;8.564;2023-05-23T02:05:39;11.73;;;10.53;;
15230;SDS011;32569;51.762;8.564;2023-05-23T02:08:06;11.73;;;10.63;;
15230;SDS011;32569;51.762;8.564;2023-05-23T02:10:33;11.40;;;10.30;;
15230;SDS011;32569;51.762;8.564;2023-05-23T02:12:59;11.43;;;10.37;;
15230;SDS011;32569;51.762;8.564;2023-05-23T02:15:26;12.37;;;11.13;;
15230;SDS011;32569;51.762;8.564;2023-05-23T02:17:53;11.43;;;10.03;;
15230;SDS011;32569;51.762;8.564;2023-05-23T02:20:20;11.90;;;10.80;;
15230;SDS011;32569;51.762;8.564;2023-05-23T02:22:47;12.63;;;11.33;;
15230;SDS011;32569;51.762;8.564;2023-05-23T02:25:14;12.17;;;11.07;;
15230;SDS011;32569;51.762;8.564;2023-05-23T02:27:40;11.47;;;10.47;;
15230;SDS011;32569;51.762;8.564;2023-05-23T02:30:07;12.83;;;11.63;;
15230;SDS011;32569;51.762;8.564;2023-05-23T02:32:34;12.50;;;11.20;;
15230;SDS011;32569;51.762;8.564;2023-05-23T02:35:02;11.73;;;10.60;;
15230;SDS011;32569;51.762;8.564;2023-05-23T02:37:30;12.30;;;10.97;;
15230;SDS011;32569;51.762;8.564;2023-05-23T02:39:57;12.57;;;11.27;;
15230;SDS011;32569;51.762;8.564;2023-05-23T02:42:24;12.23;;;11.03;;
15230;SDS011;32569;51.762;8.564;2023-05-23T02:44:50;12.97;;;11.67;;
15230;SDS011;32569;51.762;8.564;2023-05-23T02:47:17;12.10;;;10.90;;
15230;SDS011;32569;51.762;8.564;2023-05-23T02:49:43;12.03;;;10.83;;
15230;SDS011;32569;51.762;8.564;2023-05-23T02:52:10;11.10;;;10.07;;
15230;SDS011;32569;51.762;8.564;2023-05-23T02:54:38;11.73;;;10.63;;
15230;SDS011;32569;51.762;8.564;2023-05-23T02:57:05;11.80;;;10.57;;
15230;SDS011;32569;51.762;8.564;2023-05-23T02:59:31;12.00;;;10.77;;
15230;SDS011;32569;51.762;8.564;2023-05-23T03:01:58;11.87;;;10.20;;
15230;SDS011;32569;51.762;8.564;2023-05-23T03:04:24;11.57;;;10.43;;
15230;SDS011;32569;51.762;8.564;2023-05-23T03:06:52;12.57;;;11.37;;
15230;SDS011;32569;51.762;8.564;2023-05-23T03:09:19;11.03;;;10.03;;
15230;SDS011;32569;51.762;8.564;2023-05-23T03:11:47;12.33;;;10.93;;
15230;SDS011;32569;51.762;8.564;2023-05-23T03:14:13;12.27;;;11.07;;
15230;SDS011;32569;51.762;8.564;2023-05-23T03:16:40;12.50;;;11.07;;
15230;SDS011;32569;51.762;8.564;2023-05-23T03:19:06;12.13;;;10.90;;
15230;SDS011;32569;51.762;8.564;2023-05-23T03:21:33;11.77;;;10.60;;
15230;SDS011;32569;51.762;8.564;2023-05-23T03:24:00;12.53;;;11.23;;
15230;SDS011;32569;51.762;8.564;2023-05-23T03:26:27;13.90;;;11.77;;
15230;SDS011;32569;51.762;8.564;2023-05-23T03:28:55;12.60;;;11.33;;
15230;SDS011;32569;51.762;8.564;2023-05-23T03:31:22;12.47;;;11.17;;
15230;SDS011;32569;51.762;8.564;2023-05-23T03:33:49;13.13;;;11.93;;
15230;SDS011;32569;51.762;8.564;2023-05-23T03:36:16;12.73;;;11.07;;
15230;SDS011;32569;51.762;8.564;2023-05-23T03:38:42;12.73;;;11.43;;
15230;SDS011;32569;51.762;8.564;2023-05-23T03:41:09;13.13;;;11.27;;
15230;SDS011;32569;51.762;8.564;2023-05-23T03:43:36;13.93;;;12.37;;
15230;SDS011;32569;51.762;8.564;2023-05-23T03:46:04;13.00;;;11.70;;
15230;SDS011;32569;51.762;8.564;2023-05-23T03:48:30;13.43;;;12.13;;
15230;SDS011;32569;51.762;8.564;2023-05-23T03:50:57;14.17;;;12.67;;
15230;SDS011;32569;51.762;8.564;2023-05-23T03:53:23;14.00;;;12.20;;
15230;SDS011;32569;51.762;8.564;2023-05-23T03:55:50;14.10;;;12.60;;
15230;SDS011;32569;51.762;8.564;2023-05-23T03:58:17;13.57;;;12.27;;
15230;SDS011;32569;51.762;8.564;2023-05-23T04:00:44;13.23;;;11.93;;
15230;SDS011;32569;51.762;8.564;2023-05-23T04:03:12;14.67;;;13.07;;
15230;SDS011;32569;51.762;8.564;2023-05-23T04:05:41;14.47;;;12.97;;
15230;SDS011;32569;51.762;8.564;2023-05-23T04:08:08;14.07;;;12.67;;
15230;SDS011;32569;51.762;8.564;2023-05-23T04:10:35;15.17;;;13.10;;
15230;SDS011;32569;51.762;8.564;2023-05-23T04:13:01;17.10;;;14.80;;
15230;SDS011;32569;51.762;8.564;2023-05-23T04:15:28;17.00;;;15.23;;
15230;SDS011;32569;51.762;8.564;2023-05-23T04:17:55;16.40;;;14.70;;
15230;SDS011;32569;51.762;8.564;2023-05-23T04:20:23;16.00;;;14.40;;
15230;SDS011;32569;51.762;8.564;2023-05-23T04:22:50;15.37;;;13.53;;
15230;SDS011;32569;51.762;8.564;2023-05-23T04:25:16;15.23;;;13.73;;
15230;SDS011;32569;51.762;8.564;2023-05-23T04:27:44;15.87;;;13.97;;
15230;SDS011;32569;51.762;8.564;2023-05-23T04:30:11;15.37;;;13.80;;
15230;SDS011;32569;51.762;8.564;2023-05-23T04:32:41;17.73;;;14.40;;
15230;SDS011;32569;51.762;8.564;2023-05-23T04:35:08;16.37;;;14.77;;
15230;SDS011;32569;51.762;8.564;2023-05-23T04:37:37;17.70;;;15.70;;
15230;SDS011;32569;51.762;8.564;2023-05-23T04:40:04;16.13;;;14.43;;
15230;SDS011;32569;51.762;8.564;2023-05-23T04:42:31;17.40;;;15.67;;
15230;SDS011;32569;51.762;8.564;2023-05-23T04:44:58;17.20;;;15.50;;
15230;SDS011;32569;51.762;8.564;2023-05-23T04:47:26;17.93;;;16.13;;
15230;SDS011;32569;51.762;8.564;2023-05-23T04:49:52;17.47;;;15.57;;
15230;SDS011;32569;51.762;8.564;2023-05-23T04:52:21;17.87;;;15.43;;
15230;SDS011;32569;51.762;8.564;2023-05-23T04:54:48;19.93;;;17.13;;
15230;SDS011;32569;51.762;8.564;2023-05-23T04:57:18;18.20;;;16.30;;
15230;SDS011;32569;51.762;8.564;2023-05-23T04:59:44;17.07;;;15.30;;
15230;SDS011;32569;51.762;8.564;2023-05-23T05:02:11;18.10;;;15.97;;
15230;SDS011;32569;51.762;8.564;2023-05-23T05:04:38;17.77;;;15.77;;
15230;SDS011;32569;51.762;8.564;2023-05-23T05:07:05;18.83;;;16.83;;
15230;SDS011;32569;51.762;8.564;2023-05-23T05:09:34;18.90;;;16.90;;
15230;SDS011;32569;51.762;8.564;2023-05-23T05:12:02;19.03;;;17.03;;
15230;SDS011;32569;51.762;8.564;2023-05-23T05:14:29;18.03;;;16.07;;
15230;SDS011;32569;51.762;8.564;2023-05-23T05:16:55;19.73;;;17.63;;
15230;SDS011;32569;51.762;8.564;2023-05-23T05:19:22;20.27;;;17.30;;
15230;SDS011;32569;51.762;8.564;2023-05-23T05:21:49;19.73;;;16.70;;
15230;SDS011;32569;51.762;8.564;2023-05-23T05:24:16;20.20;;;17.97;;
15230;SDS011;32569;51.762;8.564;2023-05-23T05:26:44;20.40;;;17.10;;
15230;SDS011;32569;51.762;8.564;2023-05-23T05:29:13;21.93;;;17.17;;
15230;SDS011;32569;51.762;8.564;2023-05-23T05:31:39;19.13;;;16.37;;
15230;SDS011;32569;51.762;8.564;2023-05-23T05:34:08;21.90;;;17.23;;
15230;SDS011;32569;51.762;8.564;2023-05-23T05:36:35;18.87;;;16.77;;
15230;SDS011;32569;51.762;8.564;2023-05-23T05:39:02;21.00;;;17.57;;
15230;SDS011;32569;51.762;8.564;2023-05-23T05:41:29;19.20;;;16.10;;
15230;SDS011;32569;51.762;8.564;2023-05-23T05:43:55;19.07;;;16.83;;
15230;SDS011;32569;51.762;8.564;2023-05-23T05:46:23;17.90;;;16.03;;
15230;SDS011;32569;51.762;8.564;2023-05-23T05:48:50;21.17;;;16.63;;
15230;SDS011;32569;51.762;8.564;2023-05-23T05:51:17;20.77;;;16.50;;
15230;SDS011;32569;51.762;8.564;2023-05-23T05:53:43;20.73;;;16.70;;
15230;SDS011;32569;51.762;8.564;2023-05-23T05:56:10;18.37;;;16.27;;
15230;SDS011;32569;51.762;8.564;2023-05-23T05:58:37;18.33;;;15.43;;
15230;SDS011;32569;51.762;8.564;2023-05-23T06:01:04;16.90;;;15.00;;
15230;SDS011;32569;51.762;8.564;2023-05-23T06:03:32;17.57;;;15.37;;
15230;SDS011;32569;51.762;8.564;2023-05-23T06:05:58;16.90;;;15.10;;
15230;SDS011;32569;51.762;8.564;2023-05-23T06:08:25;18.17;;;15.07;;
15230;SDS011;32569;51.762;8.564;2023-05-23T06:10:52;16.27;;;14.57;;
15230;SDS011;32569;51.762;8.564;2023-05-23T06:13:18;17.63;;;15.90;;
15230;SDS011;32569;51.762;8.564;2023-05-23T06:15:45;17.67;;;15.77;;
15230;SDS011;32569;51.762;8.564;2023-05-23T06:18:11;17.37;;;15.10;;
15230;SDS011;32569;51.762;8.564;2023-05-23T06:20:39;17.57;;;15.70;;
15230;SDS011;32569;51.762;8.564;2023-05-23T06:23:06;19.10;;;16.37;;
15230;SDS011;32569;51.762;8.564;2023-05-23T06:25:33;17.10;;;15.50;;
15230;SDS011;32569;51.762;8.564;2023-05-23T06:27:59;18.13;;;16.07;;
15230;SDS011;32569;51.762;8.564;2023-05-23T06:30:26;24.67;;;17.70;;
15230;SDS011;32569;51.762;8.564;2023-05-23T06:32:53;19.47;;;16.90;;
15230;SDS011;32569;51.762;8.564;2023-05-23T06:35:20;21.80;;;18.47;;
15230;SDS011;32569;51.762;8.564;2023-05-23T06:37:48;21.53;;;18.87;;
15230;SDS011;32569;51.762;8.564;2023-05-23T06:40:14;21.90;;;19.60;;
15230;SDS011;32569;51.762;8.564;2023-05-23T06:42:41;23.00;;;19.63;;
15230;SDS011;32569;51.762;8.564;2023-05-23T06:45:08;23.17;;;19.20;;
15230;SDS011;32569;51.762;8.564;2023-05-23T06:47:35;22.00;;;19.07;;
15230;SDS011;32569;51.762;8.564;2023-05-23T06:50:02;22.97;;;20.57;;
15230;SDS011;32569;51.762;8.564;2023-05-23T06:52:29;21.57;;;18.90;;
15230;SDS011;32569;51.762;8.564;2023-05-23T06:54:57;20.93;;;18.27;;
15230;SDS011;32569;51.762;8.564;2023-05-23T06:57:23;23.97;;;19.57;;
15230;SDS011;32569;51.762;8.564;2023-05-23T06:59:50;20.80;;;18.60;;
15230;SDS011;32569;51.762;8.564;2023-05-23T07:02:17;23.13;;;17.37;;
15230;SDS011;32569;51.762;8.564;2023-05-23T07:04:43;19.53;;;17.43;;
15230;SDS011;32569;51.762;8.564;2023-05-23T07:07:10;21.90;;;17.37;;
15230;SDS011;32569;51.762;8.564;2023-05-23T07:09:36;19.70;;;16.60;;
15230;SDS011;32569;51.762;8.564;2023-05-23T07:12:05;19.53;;;16.80;;
15230;SDS011;32569;51.762;8.564;2023-05-23T07:14:32;18.87;;;15.47;;
15230;SDS011;32569;51.762;8.564;2023-05-23T07:16:59;17.47;;;15.00;;
15230;SDS011;32569;51.762;8.564;2023-05-23T07:19:26;18.43;;;15.10;;
15230;SDS011;32569;51.762;8.564;2023-05-23T07:21:52;16.90;;;13.47;;
15230;SDS011;32569;51.762;8.564;2023-05-23T07:24:19;15.63;;;12.83;;
15230;SDS011;32569;51.762;8.564;2023-05-23T07:26:46;14.37;;;12.87;;
15230;SDS011;32569;51.762;8.564;2023-05-23T07:29:14;14.40;;;11.63;;
15230;SDS011;32569;51.762;8.564;2023-05-23T07:31:40;16.23;;;12.60;;
15230;SDS011;32569;51.762;8.564;2023-05-23T07:34:07;18.13;;;12.93;;
15230;SDS011;32569;51.762;8.564;2023-05-23T07:36:33;13.80;;;12.40;;
15230;SDS011;32569;51.762;8.564;2023-05-23T07:39:01;13.77;;;12.30;;
15230;SDS011;32569;51.762;8.564;2023-05-23T07:41:28;14.03;;;11.07;;
15230;SDS011;32569;51.762;8.564;2023-05-23T07:43:55;10.20;;;8.63;;
15230;SDS011;32569;51.762;8.564;2023-05-23T07:46:23;9.60;;;7.93;;
15230;SDS011;32569;51.762;8.564;2023-05-23T07:48:50;10.67;;;8.27;;
15230;SDS011;32569;51.762;8.564;2023-05-23T07:51:16;10.63;;;7.97;;
15230;SDS011;32569;51.762;8.564;2023-05-23T07:53:45;8.83;;;7.97;;
15230;SDS011;32569;51.762;8.564;2023-05-23T07:56:11;10.77;;;8.47;;
15230;SDS011;32569;51.762;8.564;2023-05-23T07:58:38;9.87;;;7.93;;
15230;SDS011;32569;51.762;8.564;2023-05-23T08:01:05;8.67;;;7.63;;
15230;SDS011;32569;51.762;8.564;2023-05-23T08:03:33;6.80;;;6.03;;
15230;SDS011;32569;51.762;8.564;2023-05-23T08:06:01;6.63;;;5.83;;
15230;SDS011;32569;51.762;8.564;2023-05-23T08:08:28;6.70;;;5.67;;
15230;SDS011;32569;51.762;8.564;2023-05-23T08:10:54;5.60;;;5.10;;
15230;SDS011;32569;51.762;8.564;2023-05-23T08:13:21;5.50;;;5.00;;
15230;SDS011;32569;51.762;8.564;2023-05-23T08:15:47;4.87;;;4.47;;
15230;SDS011;32569;51.762;8.564;2023-05-23T08:18:14;5.07;;;4.67;;
15230;SDS011;32569;51.762;8.564;2023-05-23T08:20:43;6.43;;;4.77;;
15230;SDS011;32569;51.762;8.564;2023-05-23T08:23:10;4.57;;;4.10;;
15230;SDS011;32569;51.762;8.564;2023-05-23T08:25:37;4.37;;;3.97;;
15230;SDS011;32569;51.762;8.564;2023-05-23T08:28:04;4.17;;;3.87;;
15230;SDS011;32569;51.762;8.564;2023-05-23T08:30:31;4.20;;;3.80;;
15230;SDS011;32569;51.762;8.564;2023-05-23T08:32:58;3.47;;;3.20;;
15230;SDS011;32569;51.762;8.564;2023-05-23T08:35:28;3.90;;;3.60;;
15230;SDS011;32569;51.762;8.564;2023-05-23T08:38:00;3.40;;;3.10;;
15230;SDS011;32569;51.762;8.564;2023-05-23T08:40:27;2.73;;;2.53;;
15230;SDS011;32569;51.762;8.564;2023-05-23T08:42:56;2.70;;;2.50;;
15230;SDS011;32569;51.762;8.564;2023-05-23T08:45:23;3.30;;;3.00;;
15230;SDS011;32569;51.762;8.564;2023-05-23T08:47:50;3.57;;;3.27;;
15230;SDS011;32569;51.762;8.564;2023-05-23T08:50:17;4.13;;;3.70;;
15230;SDS011;32569;51.762;8.564;2023-05-23T08:52:47;5.53;;;3.30;;
15230;SDS011;32569;51.762;8.564;2023-05-23T08:55:20;5.40;;;3.70;;
15230;SDS011;32569;51.762;8.564;2023-05-23T08:57:50;3.60;;;3.30;;
15230;SDS011;32569;51.762;8.564;2023-05-23T09:00:17;4.60;;;3.37;;
15230;SDS011;32569;51.762;8.564;2023-05-23T09:02:45;4.07;;;3.67;;
15230;SDS011;32569;51.762;8.564;2023-05-23T09:05:12;4.70;;;3.67;;
15230;SDS011;32569;51.762;8.564;2023-05-23T09:07:39;5.40;;;3.97;;
15230;SDS011;32569;51.762;8.564;2023-05-23T09:10:07;4.57;;;3.87;;
15230;SDS011;32569;51.762;8.564;2023-05-23T09:12:36;4.93;;;3.80;;
15230;SDS011;32569;51.762;8.564;2023-05-23T09:15:03;4.40;;;4.00;;
15230;SDS011;32569;51.762;8.564;2023-05-23T09:17:30;4.60;;;3.90;;
15230;SDS011;32569;51.762;8.564;2023-05-23T09:19:57;4.50;;;4.10;;
15230;SDS011;32569;51.762;8.564;2023-05-23T09:22:24;6.20;;;4.17;;
15230;SDS011;32569;51.762;8.564;2023-05-23T09:24:51;4.13;;;3.60;;
15230;SDS011;32569;51.762;8.564;2023-05-23T09:27:19;4.80;;;4.23;;
15230;SDS011;32569;51.762;8.564;2023-05-23T09:29:47;4.40;;;3.93;;
15230;SDS011;32569;51.762;8.564;2023-05-23T09:32:15;4.37;;;3.97;;
15230;SDS011;32569;51.762;8.564;2023-05-23T09:34:47;5.07;;;4.13;;
15230;SDS011;32569;51.762;8.564;2023-05-23T09:37:21;5.67;;;3.77;;
15230;SDS011;32569;51.762;8.564;2023-05-23T09:39:48;4.07;;;3.67;;
15230;SDS011;32569;51.762;8.564;2023-05-23T09:42:18;7.13;;;4.00;;
15230;SDS011;32569;51.762;8.564;2023-05-23T09:44:47;5.70;;;3.70;;
15230;SDS011;32569;51.762;8.564;2023-05-23T09:47:14;4.60;;;4.00;;
15230;SDS011;32569;51.762;8.564;2023-05-23T09:49:42;5.87;;;3.67;;
15230;SDS011;32569;51.762;8.564;2023-05-23T09:52:09;4.37;;;3.80;;
15230;SDS011;32569;51.762;8.564;2023-05-23T09:54:36;6.20;;;4.23;;
15230;SDS011;32569;51.762;8.564;2023-05-23T09:57:03;4.03;;;3.63;;
15230;SDS011;32569;51.762;8.564;2023-05-23T09:59:37;4.23;;;3.83;;
15230;SDS011;32569;51.762;8.564;2023-05-23T10:02:06;5.87;;;4.00;;
15230;SDS011;32569;51.762;8.564;2023-05-23T10:04:37;6.43;;;4.83;;
15230;SDS011;32569;51.762;8.564;2023-05-23T10:07:06;5.43;;;4.20;;
15230;SDS011;32569;51.762;8.564;2023-05-23T10:09:41;5.13;;;4.63;;
15230;SDS011;32569;51.762;8.564;2023-05-23T10:15:10;8.30;;;4.53;;
15230;SDS011;32569;51.762;8.564;2023-05-23T10:17:45;5.93;;;5.33;;
15230;SDS011;32569;51.762;8.564;2023-05-23T10:20:19;8.63;;;6.60;;
15230;SDS011;32569;51.762;8.564;2023-05-23T10:22:50;8.13;;;5.67;;
15230;SDS011;32569;51.762;8.564;2023-05-23T10:25:17;9.10;;;5.80;;
15230;SDS011;32569;51.762;8.564;2023-05-23T10:27:44;12.20;;;7.20;;
15230;SDS011;32569;51.762;8.564;2023-05-23T10:30:14;11.10;;;7.17;;
15230;SDS011;32569;51.762;8.564;2023-05-23T10:32:41;11.87;;;7.37;;
15230;SDS011;32569;51.762;8.564;2023-05-23T10:35:11;9.33;;;7.70;;
15230;SDS011;32569;51.762;8.564;2023-05-23T10:37:47;9.97;;;7.00;;
15230;SDS011;32569;51.762;8.564;2023-05-23T10:40:21;9.90;;;7.70;;
15230;SDS011;32569;51.762;8.564;2023-05-23T10:42:57;12.10;;;6.20;;
15230;SDS011;32569;51.762;8.564;2023-05-23T10:45:28;14.97;;;6.33;;
15230;SDS011;32569;51.762;8.564;2023-05-23T10:47:54;10.40;;;6.23;;
15230;SDS011;32569;51.762;8.564;2023-05-23T10:50:32;7.67;;;5.53;;
15230;SDS011;32569;51.762;8.564;2023-05-23T10:53:01;11.47;;;6.73;;
15230;SDS011;32569;51.762;8.564;2023-05-23T10:55:32;11.77;;;6.53;;
15230;SDS011;32569;51.762;8.564;2023-05-23T10:58:09;10.10;;;7.00;;
15230;SDS011;32569;51.762;8.564;2023-05-23T11:00:37;8.50;;;7.40;;
15230;SDS011;32569;51.762;8.564;2023-05-23T11:03:04;11.60;;;8.47;;
15230;SDS011;32569;51.762;8.564;2023-05-23T11:05:34;17.23;;;8.67;;
15230;SDS011;32569;51.762;8.564;2023-05-23T11:08:06;10.43;;;7.87;;
15230;SDS011;32569;51.762;8.564;2023-05-23T11:10:53;10.90;;;8.77;;
15230;SDS011;32569;51.762;8.564;2023-05-23T11:13:21;10.63;;;8.60;;
15230;SDS011;32569;51.762;8.564;2023-05-23T11:15:48;11.77;;;7.73;;
15230;SDS011;32569;51.762;8.564;2023-05-23T11:18:18;10.93;;;7.03;;
15230;SDS011;32569;51.762;8.564;2023-05-23T11:20:48;8.63;;;6.30;;
15230;SDS011;32569;51.762;8.564;2023-05-23T11:23:16;6.70;;;5.73;;
15230;SDS011;32569;51.762;8.564;2023-05-23T11:25:43;10.37;;;5.90;;
15230;SDS011;32569;51.762;8.564;2023-05-23T11:28:12;12.37;;;7.30;;
15230;SDS011;32569;51.762;8.564;2023-05-23T11:30:40;9.13;;;6.40;;
15230;SDS011;32569;51.762;8.564;2023-05-23T11:33:07;10.17;;;6.30;;
15230;SDS011;32569;51.762;8.564;2023-05-23T11:35:37;11.60;;;6.43;;
15230;SDS011;32569;51.762;8.564;2023-05-23T11:38:06;9.30;;;6.77;;
15230;SDS011;32569;51.762;8.564;2023-05-23T11:40:34;8.67;;;6.37;;
15230;SDS011;32569;51.762;8.564;2023-05-23T11:43:02;10.97;;;5.80;;
15230;SDS011;32569;51.762;8.564;2023-05-23T11:45:30;7.40;;;6.30;;
15230;SDS011;32569;51.762;8.564;2023-05-23T11:47:58;8.87;;;5.33;;
15230;SDS011;32569;51.762;8.564;2023-05-23T11:50:30;9.53;;;5.83;;
15230;SDS011;32569;51.762;8.564;2023-05-23T11:52:57;8.93;;;5.83;;
15230;SDS011;32569;51.762;8.564;2023-05-23T11:55:26;12.07;;;6.13;;
15230;SDS011;32569;51.762;8.564;2023-05-23T11:57:54;11.37;;;5.97;;
15230;SDS011;32569;51.762;8.564;2023-05-23T12:00:21;9.13;;;5.77;;
15230;SDS011;32569;51.762;8.564;2023-05-23T12:02:47;9.30;;;5.83;;
15230;SDS011;32569;51.762;8.564;2023-05-23T12:05:14;7.90;;;5.20;;
15230;SDS011;32569;51.762;8.564;2023-05-23T12:07:41;11.73;;;6.17;;
15230;SDS011;32569;51.762;8.564;2023-05-23T12:10:08;11.13;;;5.20;;
15230;SDS011;32569;51.762;8.564;2023-05-23T12:12:37;6.47;;;4.83;;
15230;SDS011;32569;51.762;8.564;2023-05-23T12:15:04;8.73;;;5.17;;
15230;SDS011;32569;51.762;8.564;2023-05-23T12:17:31;8.60;;;4.83;;
15230;SDS011;32569;51.762;8.564;2023-05-23T12:19:58;9.53;;;4.93;;
15230;SDS011;32569;51.762;8.564;2023-05-23T12:22:25;9.03;;;5.27;;
15230;SDS011;32569;51.762;8.564;2023-05-23T12:24:53;11.00;;;4.60;;
15230;SDS011;32569;51.762;8.564;2023-05-23T12:27:25;8.57;;;4.43;;
15230;SDS011;32569;51.762;8.564;2023-05-23T12:29:54;8.13;;;4.67;;
15230;SDS011;32569;51.762;8.564;2023-05-23T12:32:30;8.37;;;4.47;;
15230;SDS011;32569;51.762;8.564;2023-05-23T12:34:56;11.70;;;4.63;;
15230;SDS011;32569;51.762;8.564;2023-05-23T12:37:23;7.60;;;4.83;;
15230;SDS011;32569;51.762;8.564;2023-05-23T12:39:50;10.23;;;4.53;;
15230;SDS011;32569;51.762;8.564;2023-05-23T12:42:17;9.47;;;4.63;;
15230;SDS011;32569;51.762;8.564;2023-05-23T12:44:43;13.17;;;4.73;;
15230;SDS011;32569;51.762;8.564;2023-05-23T12:47:13;9.43;;;4.60;;
15230;SDS011;32569;51.762;8.564;2023-05-23T12:49:40;10.27;;;4.03;;
15230;SDS011;32569;51.762;8.564;2023-05-23T12:52:08;11.57;;;4.70;;
15230;SDS011;32569;51.762;8.564;2023-05-23T12:54:35;8.50;;;3.90;;
15230;SDS011;32569;51.762;8.564;2023-05-23T12:57:05;10.93;;;4.23;;
15230;SDS011;32569;51.762;8.564;2023-05-23T12:59:31;13.53;;;5.00;;
15230;SDS011;32569;51.762;8.564;2023-05-23T13:01:58;10.70;;;4.40;;
15230;SDS011;32569;51.762;8.564;2023-05-23T13:04:27;10.50;;;4.10;;
15230;SDS011;32569;51.762;8.564;2023-05-23T13:06:53;10.30;;;4.83;;
15230;SDS011;32569;51.762;8.564;2023-05-23T13:09:20;9.90;;;4.57;;
15230;SDS011;32569;51.762;8.564;2023-05-23T13:11:46;12.17;;;4.43;;
15230;SDS011;32569;51.762;8.564;2023-05-23T13:14:13;12.07;;;4.50;;
15230;SDS011;32569;51.762;8.564;2023-05-23T13:16:40;8.23;;;5.00;;
15230;SDS011;32569;51.762;8.564;2023-05-23T13:19:07;10.37;;;4.20;;
15230;SDS011;32569;51.762;8.564;2023-05-23T13:21:34;10.57;;;4.60;;
15230;SDS011;32569;51.762;8.564;2023-05-23T13:24:01;10.80;;;4.10;;
15230;SDS011;32569;51.762;8.564;2023-05-23T13:26:28;8.40;;;4.50;;
15230;SDS011;32569;51.762;8.564;2023-05-23T13:28:54;11.13;;;4.00;;
15230;SDS011;32569;51.762;8.564;2023-05-23T13:31:21;7.50;;;4.90;;
15230;SDS011;32569;51.762;8.564;2023-05-23T13:33:48;8.17;;;4.33;;
15230;SDS011;32569;51.762;8.564;2023-05-23T13:36:14;11.73;;;5.10;;
15230;SDS011;32569;51.762;8.564;2023-05-23T13:38:42;11.93;;;5.07;;
15230;SDS011;32569;51.762;8.564;2023-05-23T13:41:09;11.37;;;4.77;;
15230;SDS011;32569;51.762;8.564;2023-05-23T13:43:36;11.60;;;5.10;;
15230;SDS011;32569;51.762;8.564;2023-05-23T13:46:02;9.60;;;4.77;;
15230;SDS011;32569;51.762;8.564;2023-05-23T13:48:29;9.73;;;4.30;;
15230;SDS011;32569;51.762;8.564;2023-05-23T13:50:56;8.17;;;4.70;;
15230;SDS011;32569;51.762;8.564;2023-05-23T13:53:22;11.90;;;4.93;;
15230;SDS011;32569;51.762;8.564;2023-05-23T13:55:51;10.73;;;4.33;;
15230;SDS011;32569;51.762;8.564;2023-05-23T13:58:18;9.30;;;4.97;;
15230;SDS011;32569;51.762;8.564;2023-05-23T14:00:45;9.60;;;4.63;;
15230;SDS011;32569;51.762;8.564;2023-05-23T14:03:12;9.37;;;4.30;;
15230;SDS011;32569;51.762;8.564;2023-05-23T14:05:39;8.47;;;4.67;;
15230;SDS011;32569;51.762;8.564;2023-05-23T14:08:06;8.57;;;4.17;;
15230;SDS011;32569;51.762;8.564;2023-05-23T14:10:33;10.10;;;4.20;;
15230;SDS011;32569;51.762;8.564;2023-05-23T14:13:01;9.63;;;4.70;;
15230;SDS011;32569;51.762;8.564;2023-05-23T14:15:27;10.77;;;4.20;;
15230;SDS011;32569;51.762;8.564;2023-05-23T14:17:54;9.77;;;4.80;;
15230;SDS011;32569;51.762;8.564;2023-05-23T14:20:21;11.40;;;4.60;;
15230;SDS011;32569;51.762;8.564;2023-05-23T14:22:48;8.07;;;4.40;;
15230;SDS011;32569;51.762;8.564;2023-05-23T14:25:15;10.93;;;4.97;;
15230;SDS011;32569;51.762;8.564;2023-05-23T14:27:42;6.87;;;4.10;;
15230;SDS011;32569;51.762;8.564;2023-05-23T14:30:13;10.63;;;4.43;;
15230;SDS011;32569;51.762;8.564;2023-05-23T14:32:40;8.50;;;4.47;;
15230;SDS011;32569;51.762;8.564;2023-05-23T14:35:08;11.63;;;4.80;;
15230;SDS011;32569;51.762;8.564;2023-05-23T14:37:35;8.90;;;4.53;;